LA HONDA (LAH)

Elevation: 425' · SAN GREGORIO CR basin · Operator: CAL FIRE

Query executed Thursday at 14:39:02   clock

Provisional data, subject to change.
Select a sensor type for a plot of data.

Earlier

Date   /   Time   RAIN     TEMP     REL HUM     FUEL MS     FUEL TP     WIND SP     WIND DR     PEAK WS     PEAK WD     SOLAR R     BAT VOL    
(PST)INCHES   DEG F   %   %   DEG F   MPH   DEG   MPH   DEG   W/M^2   VOLTS  
11/26/2014 14:00 4.15 76 27 8 76 4 248 6 312 422.00 13.5
11/26/2014 15:00 4.15 74 28 8 76 3 247 6 272 320.00 13.5
11/26/2014 16:00 4.15 72 29 8 67 0 238 5 252 168.00 13.9
11/26/2014 17:00 4.15 62 36 8 56 0 73 3 4 31.00 13.4
11/26/2014 18:00 4.15 57 64 10 52 6 72 7 68 0.00 13.2
11/26/2014 19:00 4.15 55 62 10 50 5 93 6 80 0.00 13.1
11/26/2014 20:00 4.15 53 72 12 48 5 88 7 89 0.00 13.0
11/26/2014 21:00 4.15 54 65 13 48 4 91 6 91 0.00 12.9
11/26/2014 22:00 4.15 52 66 14 47 5 87 6 83 0.00 12.8
11/26/2014 23:00 4.15 51 65 16 45 5 86 6 82 0.00 12.8
11/27/2014 00:00 4.15 51 58 17 45 5 87 6 87 0.00 12.8
11/27/2014 01:00 4.15 51 57 17 45 6 88 8 90 0.00 12.8
11/27/2014 02:00 4.15 51 61 18 45 4 80 6 83 0.00 12.8
11/27/2014 03:00 4.15 52 44 18 44 4 80 7 91 0.00 12.8
11/27/2014 04:00 4.15 51 45 17 44 4 74 6 87 0.00 12.7
11/27/2014 05:00 4.15 50 47 16 43 6 83 7 85 0.00 12.7
11/27/2014 06:00 4.15 48 48 17 42 5 77 6 81 0.00 12.7
11/27/2014 07:00 4.15 50 50 17 42 4 79 6 77 1.00 12.7
11/27/2014 08:00 4.15 51 48 19 45 5 89 6 85 48.00 13.7
11/27/2014 09:00 4.15 63 44 17 64 0 194 6 96 220.00 14.0
11/27/2014 10:00 4.15 70 27 11 76 0 230 4 232 357.00 13.8
11/27/2014 11:00 4.15 74 22 10 78 1 255 6 227 423.00 13.7
11/27/2014 12:00 4.15 74 28 9 75 3 251 6 296 489.00 13.7
11/27/2014 13:00 4.15 76 20 9 73 4 246 7 238 496.00 13.6
11/27/2014 14:00 4.15 77 16 8 76 3 247 7 227 437.00 13.6

Later | Latest

Warning! This data is preliminary and subject to revision.

Show LAH Map | 24 Hours LAH Data | Plot all LAH Sensors | Daily LAH Data | LAH Info